createdAt,value
2022-09-04T00:00:10.322Z,98301.69
2022-09-04T00:03:05.732Z,98304.53
2022-09-04T00:05:43.159Z,98294.63
2022-09-04T00:11:14.180Z,98309.16
2022-09-04T00:13:49.934Z,98323.44
2022-09-04T00:16:24.156Z,98335.38
2022-09-04T00:19:02.739Z,98335.03
2022-09-04T00:21:38.468Z,98324.13
2022-09-04T00:24:12.715Z,98313.91
2022-09-04T00:26:54.550Z,98310.53
2022-09-04T00:29:37.353Z,98308.16
2022-09-04T00:32:18.925Z,98316.09
2022-09-04T00:35:07.122Z,98308.38
2022-09-04T00:37:43.053Z,98304.97
2022-09-04T00:40:26.514Z,98299.63
2022-09-04T00:43:53.520Z,98285.78
2022-09-04T00:47:10.701Z,98282.25
2022-09-04T00:50:07.728Z,98276.03
2022-09-04T00:52:59.532Z,98273.78
2022-09-04T00:55:59.890Z,98280.47
2022-09-04T00:58:45.984Z,98281.50
2022-09-04T01:01:23.499Z,98293.50
2022-09-04T01:04:25.750Z,98309.06
2022-09-04T01:07:24.062Z,98320.50
2022-09-04T01:10:19.761Z,98330.22
2022-09-04T01:12:58.431Z,98329.22
2022-09-04T01:15:45.590Z,98321.59
2022-09-04T01:18:23.440Z,98321.16
2022-09-04T01:21:31.050Z,98317.28
2022-09-04T01:24:35.813Z,98317.81
2022-09-04T01:27:11.385Z,98314.66
2022-09-04T01:29:54.196Z,98313.75
2022-09-04T01:32:36.921Z,98317.00
2022-09-04T01:35:21.912Z,98322.78
2022-09-04T01:38:02.788Z,98309.84
2022-09-04T01:40:42.242Z,98311.97
2022-09-04T01:43:14.596Z,98314.44
2022-09-04T01:46:05.405Z,98325.78
2022-09-04T01:48:47.489Z,98321.34
2022-09-04T01:51:28.040Z,98328.59
2022-09-04T01:54:13.879Z,98325.97
2022-09-04T01:56:53.097Z,98333.50
2022-09-04T01:59:29.561Z,98326.47
2022-09-04T02:02:05.800Z,98327.56
2022-09-04T02:04:44.620Z,98327.44
2022-09-04T02:07:23.867Z,98331.28
2022-09-04T02:10:08.598Z,98341.91
2022-09-04T02:12:51.243Z,98341.19
2022-09-04T02:15:35.284Z,98342.13
2022-09-04T02:18:15.036Z,98344.44
2022-09-04T02:20:54.068Z,98350.81
2022-09-04T02:23:36.091Z,98347.00
2022-09-04T02:26:14.569Z,98338.44
2022-09-04T02:28:58.625Z,98323.41
2022-09-04T02:31:39.076Z,98329.25
2022-09-04T02:34:15.100Z,98330.81
2022-09-04T02:36:53.118Z,98336.13
2022-09-04T02:39:38.610Z,98338.78
2022-09-04T02:42:21.239Z,98342.03
2022-09-04T02:45:02.275Z,98342.31
2022-09-04T02:47:46.853Z,98352.91
2022-09-04T02:50:39.254Z,98363.84
2022-09-04T02:53:30.983Z,98362.81
2022-09-04T02:56:17.101Z,98357.69
2022-09-04T02:59:04.663Z,98357.69
2022-09-04T03:01:41.052Z,98357.31
2022-09-04T03:04:19.755Z,98361.94
2022-09-04T03:06:55.049Z,98359.56
2022-09-04T03:09:30.837Z,98367.84
2022-09-04T03:12:07.100Z,98359.44
2022-09-04T03:14:45.464Z,98359.78
2022-09-04T03:17:27.022Z,98361.97
2022-09-04T03:20:06.511Z,98370.00
2022-09-04T03:22:44.606Z,98370.72
2022-09-04T03:25:49.624Z,98366.50
2022-09-04T03:28:31.208Z,98379.34
2022-09-04T03:31:25.551Z,98380.66
2022-09-04T03:34:21.336Z,98379.50
2022-09-04T03:37:13.745Z,98379.09
2022-09-04T03:39:57.174Z,98387.41
2022-09-04T03:42:37.237Z,98388.13
2022-09-04T03:45:22.630Z,98382.81
2022-09-04T03:48:12.768Z,98395.06
2022-09-04T03:50:55.340Z,98391.38
2022-09-04T03:53:38.722Z,98396.66
2022-09-04T03:56:31.489Z,98405.44
2022-09-04T03:59:06.182Z,98406.38
2022-09-04T04:01:48.492Z,98406.19
2022-09-04T04:04:53.356Z,98415.50
2022-09-04T04:07:38.381Z,98428.63
2022-09-04T04:10:33.605Z,98417.06
2022-09-04T04:16:17.856Z,98425.25
2022-09-04T04:19:24.150Z,98427.41
2022-09-04T04:22:11.888Z,98424.94
2022-09-04T04:25:06.643Z,98428.28
2022-09-04T04:27:54.468Z,98425.66
2022-09-04T04:30:23.698Z,98428.13
2022-09-04T04:33:25.948Z,98425.81
2022-09-04T04:36:13.204Z,98431.31
2022-09-04T04:39:15.564Z,98448.41
2022-09-04T04:42:07.067Z,98439.59
2022-09-04T04:45:25.819Z,98443.34
2022-09-04T04:49:06.305Z,98450.59
2022-09-04T04:52:00.100Z,98450.59
2022-09-04T04:54:59.964Z,98455.72
2022-09-04T04:57:37.679Z,98455.56
2022-09-04T05:00:16.213Z,98459.09
2022-09-04T05:03:01.987Z,98463.09
2022-09-04T05:05:55.312Z,98466.41
2022-09-04T05:08:36.349Z,98467.22
2022-09-04T05:11:15.329Z,98477.09
2022-09-04T05:13:58.525Z,98483.63
2022-09-04T05:16:43.020Z,98489.09
2022-09-04T05:19:22.876Z,98485.03
2022-09-04T05:22:01.097Z,98490.88
2022-09-04T05:24:37.818Z,98492.28
2022-09-04T05:27:16.758Z,98495.66
2022-09-04T05:29:53.887Z,98499.72
2022-09-04T05:32:34.552Z,98495.66
2022-09-04T05:35:14.369Z,98485.47
2022-09-04T05:37:54.741Z,98503.00
2022-09-04T05:40:32.190Z,98504.97
2022-09-04T05:43:13.416Z,98514.53
2022-09-04T05:45:59.528Z,98504.88
2022-09-04T05:48:43.705Z,98512.47
2022-09-04T05:51:54.487Z,98512.09
2022-09-04T05:55:00.904Z,98510.81
2022-09-04T05:57:47.704Z,98519.06
2022-09-04T06:00:19.141Z,98520.28
2022-09-04T06:03:17.642Z,98523.44
2022-09-04T06:06:08.712Z,98522.88
2022-09-04T06:09:02.243Z,98521.75
2022-09-04T06:11:45.946Z,98522.47
2022-09-04T06:14:35.260Z,98526.09
2022-09-04T06:17:27.512Z,98532.25
2022-09-04T06:20:14.539Z,98524.53
2022-09-04T06:23:07.313Z,98529.78
2022-09-04T06:26:08.648Z,98528.63
2022-09-04T06:29:17.857Z,98527.50
2022-09-04T06:32:26.202Z,98517.75
2022-09-04T06:35:23.889Z,98525.31
2022-09-04T06:38:08.906Z,98531.41
2022-09-04T06:40:58.965Z,98541.25
2022-09-04T06:43:38.099Z,98543.94
2022-09-04T06:46:22.334Z,98543.16
2022-09-04T06:49:03.049Z,98551.09
2022-09-04T06:51:58.797Z,98551.25
2022-09-04T06:54:47.265Z,98546.34
2022-09-04T06:57:48.253Z,98550.78
2022-09-04T07:00:20.040Z,98547.56
2022-09-04T07:03:18.418Z,98553.53
2022-09-04T07:05:59.802Z,98548.56
2022-09-04T07:08:47.718Z,98563.06
2022-09-04T07:11:29.754Z,98562.00
2022-09-04T07:14:20.302Z,98563.59
2022-09-04T07:17:07.384Z,98573.75
2022-09-04T07:20:12.924Z,98562.75
2022-09-04T07:23:27.076Z,98560.03
2022-09-04T07:26:12.311Z,98567.56
2022-09-04T07:29:08.916Z,98573.34
2022-09-04T07:31:45.315Z,98574.81
2022-09-04T07:34:26.182Z,98576.56
2022-09-04T07:37:04.631Z,98573.97
2022-09-04T07:39:45.569Z,98596.00
2022-09-04T07:42:22.664Z,98586.72
2022-09-04T07:45:03.289Z,98595.84
2022-09-04T07:47:38.192Z,98592.13
2022-09-04T07:50:11.700Z,98599.63
2022-09-04T07:53:08.332Z,98596.78
2022-09-04T07:55:42.025Z,98599.19
2022-09-04T07:58:53.074Z,98592.41
2022-09-04T08:01:52.417Z,98601.69
2022-09-04T08:04:49.418Z,98607.66
2022-09-04T08:07:28.928Z,98603.34
2022-09-04T08:10:21.426Z,98603.19
2022-09-04T08:13:25.389Z,98606.69
2022-09-04T08:16:07.238Z,98612.72
2022-09-04T08:19:01.613Z,98606.31
2022-09-04T08:21:35.335Z,98610.94
2022-09-04T08:24:57.037Z,98605.25
2022-09-04T08:28:02.992Z,98607.59
2022-09-04T08:30:47.713Z,98612.91
2022-09-04T08:34:17.486Z,98617.09
2022-09-04T08:36:59.613Z,98621.31
2022-09-04T08:39:37.670Z,98619.06
2022-09-04T08:42:54.174Z,98626.06
2022-09-04T08:45:55.448Z,98626.00
2022-09-04T08:49:10.544Z,98624.28
2022-09-04T08:52:36.226Z,98630.34
2022-09-04T08:55:51.753Z,98635.56
2022-09-04T08:59:08.008Z,98624.66
2022-09-04T09:02:28.519Z,98628.38
2022-09-04T09:05:41.335Z,98631.91
2022-09-04T09:09:19.765Z,98634.63
2022-09-04T09:12:45.907Z,98628.00
2022-09-04T09:15:52.988Z,98636.75
2022-09-04T09:18:40.841Z,98639.19
2022-09-04T09:21:13.743Z,98635.72
2022-09-04T09:24:47.736Z,98638.28
2022-09-04T09:28:01.832Z,98635.25
2022-09-04T09:30:45.196Z,98630.47
2022-09-04T09:34:15.419Z,98637.41
2022-09-04T09:37:21.707Z,98639.09
2022-09-04T09:40:31.845Z,98638.94
2022-09-04T09:44:10.030Z,98647.38
2022-09-04T09:47:25.669Z,98635.34
2022-09-04T09:50:22.669Z,98649.56
2022-09-04T09:53:46.997Z,98642.31
2022-09-04T09:57:06.064Z,98650.84
2022-09-04T10:00:05.984Z,98641.94
2022-09-04T10:03:45.320Z,98646.16
2022-09-04T10:06:44.785Z,98643.19
2022-09-04T10:10:04.865Z,98634.19
2022-09-04T10:13:26.817Z,98643.47
2022-09-04T10:16:53.138Z,98655.13
2022-09-04T10:20:06.173Z,98653.75
2022-09-04T10:23:08.895Z,98653.28
2022-09-04T10:26:50.709Z,98647.34
2022-09-04T10:29:46.599Z,98656.75
2022-09-04T10:33:07.957Z,98658.53
2022-09-04T10:36:04.984Z,98654.19
2022-09-04T10:39:02.565Z,98655.03
2022-09-04T10:42:02.013Z,98655.75
2022-09-04T10:44:56.548Z,98652.41
2022-09-04T10:48:29.618Z,98651.06
2022-09-04T10:51:21.016Z,98656.16
2022-09-04T10:54:45.028Z,98657.31
2022-09-04T10:57:39.276Z,98662.06
2022-09-04T11:00:14.356Z,98646.91
2022-09-04T11:03:28.205Z,98652.97
2022-09-04T11:06:31.543Z,98645.69
2022-09-04T11:09:34.078Z,98644.44
2022-09-04T11:12:53.711Z,98643.06
2022-09-04T11:16:09.998Z,98640.97
2022-09-04T11:19:16.064Z,98631.19
2022-09-04T11:22:15.115Z,98631.59
2022-09-04T11:25:42.812Z,98633.88
2022-09-04T11:28:52.196Z,98634.78
2022-09-04T11:31:47.119Z,98629.72
2022-09-04T11:35:14.259Z,98630.19
2022-09-04T11:38:09.251Z,98625.31
2022-09-04T11:41:29.106Z,98632.97
2022-09-04T11:44:48.448Z,98631.47
2022-09-04T11:48:07.085Z,98623.03
2022-09-04T11:50:56.565Z,98625.06
2022-09-04T11:53:52.968Z,98624.00
2022-09-04T11:56:58.289Z,98622.75
2022-09-04T12:00:03.607Z,98617.94
2022-09-04T12:03:29.702Z,98615.78
2022-09-04T12:06:14.947Z,98604.97
2022-09-04T12:09:21.504Z,98606.22
2022-09-04T12:12:43.110Z,98604.28
2022-09-04T12:15:45.299Z,98612.09
2022-09-04T12:19:23.221Z,98608.63
2022-09-04T12:23:02.773Z,98607.13
2022-09-04T12:26:21.687Z,98610.97
2022-09-04T12:29:33.810Z,98615.59
2022-09-04T12:33:18.636Z,98613.28
2022-09-04T12:36:36.972Z,98615.88
2022-09-04T12:39:48.033Z,98615.13
2022-09-04T12:42:25.585Z,98607.16
2022-09-04T12:45:11.132Z,98604.47
2022-09-04T12:47:57.266Z,98606.00
2022-09-04T12:50:44.391Z,98624.25
2022-09-04T12:53:34.040Z,98625.88
2022-09-04T12:56:12.126Z,98623.53
2022-09-04T12:59:02.001Z,98626.94
2022-09-04T13:01:46.355Z,98634.97
2022-09-04T13:04:27.685Z,98621.53
2022-09-04T13:07:16.677Z,98610.00
2022-09-04T13:09:57.364Z,98603.03
2022-09-04T13:12:42.352Z,98596.69
2022-09-04T13:15:30.797Z,98607.00
2022-09-04T13:18:18.191Z,98605.66
2022-09-04T13:20:58.122Z,98610.47
2022-09-04T13:23:46.845Z,98605.69
2022-09-04T13:26:38.342Z,98611.03
2022-09-04T13:29:35.927Z,98610.53
2022-09-04T13:32:31.697Z,98634.38
2022-09-04T13:35:19.236Z,98656.59
2022-09-04T13:38:11.580Z,98671.09
2022-09-04T13:41:31.012Z,98685.88
2022-09-04T13:44:34.446Z,98701.91
2022-09-04T13:47:08.339Z,98706.06
2022-09-04T13:49:44.343Z,98689.03
2022-09-04T13:52:19.443Z,98680.94
2022-09-04T13:54:55.697Z,98686.81
2022-09-04T13:57:30.355Z,98691.56
2022-09-04T14:00:07.526Z,98702.22
2022-09-04T14:02:39.241Z,98708.22
2022-09-04T14:05:13.366Z,98709.41
2022-09-04T14:07:46.151Z,98708.56
2022-09-04T14:10:20.055Z,98709.09
2022-09-04T14:13:12.449Z,98701.31
2022-09-04T14:16:04.695Z,98705.44
2022-09-04T14:19:00.185Z,98703.25
2022-09-04T14:22:00.342Z,98715.50
2022-09-04T14:24:42.158Z,98716.25
2022-09-04T14:27:23.276Z,98718.31
2022-09-04T14:30:06.130Z,98716.84
2022-09-04T14:32:58.400Z,98728.03
2022-09-04T14:35:37.607Z,98725.41
2022-09-04T14:38:42.358Z,98730.81
2022-09-04T14:41:37.148Z,98734.28
2022-09-04T14:44:20.929Z,98741.91
2022-09-04T14:47:03.543Z,98759.59
2022-09-04T14:49:41.685Z,98761.34
2022-09-04T14:52:21.683Z,98764.59
2022-09-04T14:54:57.773Z,98759.97
2022-09-04T14:57:34.633Z,98761.91
2022-09-04T15:00:14.904Z,98756.63
2022-09-04T15:02:48.601Z,98749.81
2022-09-04T15:05:27.741Z,98748.84
2022-09-04T15:08:01.086Z,98755.03
2022-09-04T15:10:47.134Z,98749.50
2022-09-04T15:13:48.773Z,98744.72
2022-09-04T15:16:29.533Z,98755.34
2022-09-04T15:19:09.921Z,98755.50
2022-09-04T15:21:47.328Z,98756.44
2022-09-04T15:24:26.486Z,98755.19
2022-09-04T15:27:09.393Z,98755.84
2022-09-04T15:29:47.950Z,98747.75
2022-09-04T15:32:23.730Z,98748.81
2022-09-04T15:35:12.724Z,98741.25
2022-09-04T15:37:48.385Z,98744.38
2022-09-04T15:40:32.912Z,98751.06
2022-09-04T15:43:14.045Z,98742.53
2022-09-04T15:45:48.265Z,98745.84
2022-09-04T15:48:43.965Z,98748.38
2022-09-04T15:51:24.602Z,98753.28
2022-09-04T15:54:21.202Z,98746.34
2022-09-04T15:57:03.268Z,98758.06
2022-09-04T15:59:50.279Z,98751.72
2022-09-04T16:02:37.394Z,98768.38
2022-09-04T16:05:24.107Z,98777.75
2022-09-04T16:08:05.432Z,98770.97
2022-09-04T16:11:00.436Z,98779.22
2022-09-04T16:13:45.337Z,98778.53
2022-09-04T16:16:29.802Z,98777.97
2022-09-04T16:19:21.985Z,98784.34
2022-09-04T16:22:07.693Z,98780.78
2022-09-04T16:24:44.816Z,98783.13
2022-09-04T16:27:21.286Z,98777.66
2022-09-04T16:29:59.073Z,98774.22
2022-09-04T16:32:32.170Z,98778.03
2022-09-04T16:35:06.102Z,98777.19
2022-09-04T16:37:42.588Z,98771.97
2022-09-04T16:40:28.433Z,98772.03
2022-09-04T16:43:12.069Z,98780.31
2022-09-04T16:45:50.092Z,98777.41
2022-09-04T16:48:33.892Z,98782.97
2022-09-04T16:51:39.725Z,98782.34
2022-09-04T16:54:08.912Z,98787.25
2022-09-04T16:56:42.944Z,98786.53
2022-09-04T16:59:30.160Z,98772.72
2022-09-04T17:02:03.708Z,98781.25
2022-09-04T17:04:40.261Z,98775.03
2022-09-04T17:07:20.412Z,98780.44
2022-09-04T17:10:01.884Z,98780.75
2022-09-04T17:12:52.879Z,98788.75
2022-09-04T17:15:33.963Z,98784.06
2022-09-04T17:18:08.479Z,98796.16
2022-09-04T17:23:25.951Z,98795.53
2022-09-04T17:29:11.312Z,98796.50
2022-09-04T17:29:16.666Z,98795.19
2022-09-04T17:29:43.117Z,98800.00
2022-09-04T17:35:34.106Z,98803.81
2022-09-04T17:40:34.822Z,98807.44
2022-09-04T17:40:54.772Z,98816.47
2022-09-04T17:41:31.225Z,98816.25
2022-09-04T17:44:31.936Z,98819.41
2022-09-04T17:47:18.380Z,98824.13
2022-09-04T17:49:53.745Z,98826.78
2022-09-04T17:52:28.723Z,98833.69
2022-09-04T17:55:03.970Z,98845.41
2022-09-04T17:57:53.749Z,98835.25
2022-09-04T18:00:26.293Z,98843.25
2022-09-04T18:03:03.901Z,98846.69
2022-09-04T18:05:49.162Z,98847.94
2022-09-04T18:08:32.600Z,98860.94
2022-09-04T18:11:13.894Z,98860.53
2022-09-04T18:13:54.702Z,98866.00
2022-09-04T18:17:11.495Z,98877.00
2022-09-04T18:19:47.686Z,98876.09
2022-09-04T18:22:33.470Z,98874.50
2022-09-04T18:25:17.060Z,98886.81
2022-09-04T18:28:06.483Z,98884.84
2022-09-04T18:36:39.346Z,98888.16
2022-09-04T18:37:21.502Z,98886.09
2022-09-04T18:37:26.560Z,98884.97
2022-09-04T18:40:08.659Z,98892.84
2022-09-04T18:50:26.019Z,98888.47
2022-09-04T18:50:39.645Z,98890.19
2022-09-04T18:50:45.239Z,98890.25
2022-09-04T18:51:31.057Z,98893.03
2022-09-04T18:54:09.532Z,98888.47
2022-09-04T18:56:46.218Z,98896.22
2022-09-04T18:59:21.014Z,98891.78
2022-09-04T19:02:00.974Z,98888.09
2022-09-04T19:04:48.919Z,98892.88
2022-09-04T19:07:30.078Z,98880.84
2022-09-04T19:10:11.851Z,98891.56
2022-09-04T19:12:56.276Z,98895.78
2022-09-04T19:16:05.576Z,98896.16
2022-09-04T19:18:48.793Z,98902.06
2022-09-04T19:21:39.822Z,98908.13
2022-09-04T19:24:28.676Z,98903.44
2022-09-04T19:27:29.018Z,98906.97
2022-09-04T19:30:18.681Z,98918.25
2022-09-04T19:33:06.050Z,98916.88
2022-09-04T19:35:45.012Z,98923.94
2022-09-04T19:43:51.236Z,98926.00
2022-09-04T19:46:08.362Z,98918.41
2022-09-04T19:46:15.177Z,98918.41
2022-09-04T19:47:29.750Z,98928.41
2022-09-04T19:52:28.263Z,98921.41
2022-09-04T19:53:37.680Z,98916.06
2022-09-04T19:56:23.299Z,98924.03
2022-09-04T19:58:58.981Z,98920.69
2022-09-04T20:01:39.721Z,98921.75
2022-09-04T20:04:27.042Z,98928.41
2022-09-04T20:07:02.785Z,98923.72
2022-09-04T20:09:38.339Z,98921.19
2022-09-04T20:12:20.798Z,98924.16
2022-09-04T20:14:57.120Z,98925.03
2022-09-04T20:17:46.915Z,98931.00
2022-09-04T20:20:23.284Z,98934.53
2022-09-04T20:23:00.110Z,98931.06
2022-09-04T20:25:46.510Z,98931.13
2022-09-04T20:28:24.693Z,98934.97
2022-09-04T20:31:35.569Z,98927.84
2022-09-04T20:34:17.067Z,98933.53
2022-09-04T20:36:52.576Z,98936.50
2022-09-04T20:39:29.022Z,98931.53
2022-09-04T20:42:05.228Z,98939.28
2022-09-04T20:44:51.178Z,98937.13
2022-09-04T20:52:50.396Z,98939.91
2022-09-04T20:52:53.415Z,98938.00
2022-09-04T20:53:37.159Z,98934.63
2022-09-04T20:57:07.574Z,98934.81
2022-09-04T21:03:09.576Z,98934.72
2022-09-04T21:03:19.610Z,98929.88
2022-09-04T21:06:06.082Z,98940.94
2022-09-04T21:08:51.715Z,98937.84
2022-09-04T21:11:40.879Z,98948.97
2022-09-04T21:14:22.453Z,98948.53
2022-09-04T21:17:27.567Z,98953.66
2022-09-04T21:20:59.812Z,98953.84
2022-09-04T21:24:17.003Z,98958.84
2022-09-04T21:27:27.357Z,98962.72
2022-09-04T21:30:06.480Z,98960.41
2022-09-04T21:33:27.751Z,98971.06
2022-09-04T21:36:26.760Z,98973.91
2022-09-04T21:39:39.349Z,98975.88
2022-09-04T21:42:50.958Z,98973.03
2022-09-04T21:45:48.098Z,98976.91
2022-09-04T21:48:43.739Z,98970.16
2022-09-04T21:51:49.267Z,98986.75
2022-09-04T21:59:49.287Z,98988.44
2022-09-04T22:02:32.046Z,98990.94
2022-09-04T22:02:40.458Z,98991.91
2022-09-04T22:04:44.778Z,98982.75
2022-09-04T22:09:54.173Z,98993.13
2022-09-04T22:13:29.338Z,98996.56
2022-09-04T22:13:53.115Z,98980.47
2022-09-04T22:16:58.734Z,98974.22
2022-09-04T22:20:13.004Z,98971.19
2022-09-04T22:23:20.303Z,98968.78
2022-09-04T22:26:23.964Z,98981.84
2022-09-04T22:29:37.566Z,98976.69
2022-09-04T22:33:05.683Z,98977.13
2022-09-04T22:36:17.309Z,98971.69
2022-09-04T22:39:44.497Z,98978.38
2022-09-04T22:42:45.026Z,98971.47
2022-09-04T22:45:49.225Z,98978.94
2022-09-04T22:48:47.231Z,98980.84
2022-09-04T22:51:35.916Z,98977.34
2022-09-04T22:54:37.473Z,98983.94
2022-09-04T22:57:12.172Z,98986.41
2022-09-04T23:00:11.725Z,98988.97
2022-09-04T23:03:26.172Z,98996.41
2022-09-04T23:09:13.744Z,98997.81
2022-09-04T23:13:49.833Z,98995.53
2022-09-04T23:14:01.163Z,98999.09
2022-09-04T23:17:11.711Z,98999.75
2022-09-04T23:26:33.064Z,98992.63
2022-09-04T23:26:57.302Z,98994.25
2022-09-04T23:27:43.512Z,98987.59
2022-09-04T23:30:26.446Z,98983.69
2022-09-04T23:33:42.628Z,98989.44
2022-09-04T23:37:01.297Z,98984.94
2022-09-04T23:39:49.852Z,98989.25
2022-09-04T23:42:47.506Z,98994.94
2022-09-04T23:46:01.377Z,98993.13
2022-09-04T23:49:05.490Z,98988.56
2022-09-04T23:51:46.758Z,98987.06
2022-09-04T23:54:46.936Z,98980.78
2022-09-04T23:57:26.657Z,98986.72
